sensor_id;sensor_type;location;lat;lon;timestamp;pressure;altitude;pressure_sealevel;temperature;humidity
61900;BME280;47853;55.890;37.664;2023-05-21T13:58:13;99973.38;;;21.67;37.57
61900;BME280;47853;55.890;37.664;2023-05-21T14:00:38;99984.09;;;22.35;37.80
61900;BME280;47853;55.890;37.664;2023-05-21T14:03:03;99990.50;;;22.22;38.46
61900;BME280;47853;55.890;37.664;2023-05-21T14:05:29;99999.53;;;20.53;41.64
61900;BME280;47853;55.890;37.664;2023-05-21T14:07:54;99997.72;;;19.56;45.98
61900;BME280;47853;55.890;37.664;2023-05-21T14:10:19;100000.91;;;19.26;47.19
61900;BME280;47853;55.890;37.664;2023-05-21T14:12:45;99997.47;;;19.64;47.42
61900;BME280;47853;55.890;37.664;2023-05-21T14:15:10;100003.59;;;19.98;45.97
61900;BME280;47853;55.890;37.664;2023-05-21T14:17:36;99985.81;;;19.77;45.70
61900;BME280;47853;55.890;37.664;2023-05-21T14:20:02;99992.75;;;19.53;47.15
61900;BME280;47853;55.890;37.664;2023-05-21T14:22:30;99991.03;;;19.72;46.60
61900;BME280;47853;55.890;37.664;2023-05-21T14:24:55;99969.69;;;19.70;45.21
61900;BME280;47853;55.890;37.664;2023-05-21T14:27:20;99996.91;;;20.08;43.97
61900;BME280;47853;55.890;37.664;2023-05-21T14:29:46;100005.06;;;19.08;46.21
61900;BME280;47853;55.890;37.664;2023-05-21T14:32:11;99992.13;;;19.44;46.04
61900;BME280;47853;55.890;37.664;2023-05-21T14:34:36;99988.56;;;19.70;45.57
61900;BME280;47853;55.890;37.664;2023-05-21T14:37:02;99995.47;;;20.05;45.95
61900;BME280;47853;55.890;37.664;2023-05-21T14:39:27;99996.66;;;20.48;44.29
61900;BME280;47853;55.890;37.664;2023-05-21T14:41:52;99997.94;;;20.46;44.67
61900;BME280;47853;55.890;37.664;2023-05-21T14:44:18;99991.75;;;20.06;45.24
61900;BME280;47853;55.890;37.664;2023-05-21T14:46:43;99987.66;;;19.90;46.08
61900;BME280;47853;55.890;37.664;2023-05-21T14:49:08;100002.66;;;19.59;46.32
61900;BME280;47853;55.890;37.664;2023-05-21T14:51:34;99985.28;;;19.62;46.31
61900;BME280;47853;55.890;37.664;2023-05-21T14:53:59;99985.72;;;20.04;45.91
61900;BME280;47853;55.890;37.664;2023-05-21T14:56:25;100007.91;;;20.06;44.59
61900;BME280;47853;55.890;37.664;2023-05-21T14:58:51;99968.56;;;19.33;47.27
61900;BME280;47853;55.890;37.664;2023-05-21T15:01:17;99988.34;;;20.18;46.14
61900;BME280;47853;55.890;37.664;2023-05-21T15:03:42;99986.63;;;19.91;46.67
61900;BME280;47853;55.890;37.664;2023-05-21T15:06:07;99967.41;;;20.45;45.24
61900;BME280;47853;55.890;37.664;2023-05-21T15:08:33;99989.06;;;19.47;47.55
61900;BME280;47853;55.890;37.664;2023-05-21T15:10:58;99978.06;;;19.42;49.17
61900;BME280;47853;55.890;37.664;2023-05-21T15:13:24;99992.84;;;20.31;47.03
61900;BME280;47853;55.890;37.664;2023-05-21T15:15:49;99994.69;;;19.98;47.47
61900;BME280;47853;55.890;37.664;2023-05-21T15:18:14;99987.41;;;19.46;48.39
61900;BME280;47853;55.890;37.664;2023-05-21T15:20:40;99998.78;;;19.48;49.12
61900;BME280;47853;55.890;37.664;2023-05-21T15:23:05;99998.97;;;19.47;50.18
61900;BME280;47853;55.890;37.664;2023-05-21T15:25:30;99998.88;;;19.08;50.99
61900;BME280;47853;55.890;37.664;2023-05-21T15:27:56;99977.91;;;19.30;51.39
61900;BME280;47853;55.890;37.664;2023-05-21T15:30:21;99985.88;;;20.16;49.15
61900;BME280;47853;55.890;37.664;2023-05-21T15:32:46;99993.41;;;19.48;50.14
61900;BME280;47853;55.890;37.664;2023-05-21T15:35:12;99981.53;;;19.69;50.14
61900;BME280;47853;55.890;37.664;2023-05-21T15:37:38;99991.09;;;20.11;49.12
61900;BME280;47853;55.890;37.664;2023-05-21T15:40:04;99983.69;;;20.32;47.92
61900;BME280;47853;55.890;37.664;2023-05-21T15:42:29;99988.25;;;19.99;48.93
61900;BME280;47853;55.890;37.664;2023-05-21T15:44:54;99979.59;;;20.54;47.54
61900;BME280;47853;55.890;37.664;2023-05-21T15:47:20;99994.50;;;20.32;48.50
61900;BME280;47853;55.890;37.664;2023-05-21T15:49:45;99991.09;;;20.43;48.46
61900;BME280;47853;55.890;37.664;2023-05-21T15:52:10;100002.53;;;19.99;49.14
61900;BME280;47853;55.890;37.664;2023-05-21T15:54:36;99985.19;;;20.27;49.03
61900;BME280;47853;55.890;37.664;2023-05-21T15:57:01;99996.38;;;19.92;49.84
61900;BME280;47853;55.890;37.664;2023-05-21T15:59:26;99997.78;;;19.16;52.69
61900;BME280;47853;55.890;37.664;2023-05-21T16:01:52;99997.91;;;19.61;51.42
61900;BME280;47853;55.890;37.664;2023-05-21T16:04:18;100003.88;;;19.70;51.76
61900;BME280;47853;55.890;37.664;2023-05-21T16:06:43;99983.13;;;19.77;50.82
61900;BME280;47853;55.890;37.664;2023-05-21T16:09:09;100000.28;;;19.17;54.53
61900;BME280;47853;55.890;37.664;2023-05-21T16:11:34;100005.03;;;19.35;53.83
61900;BME280;47853;55.890;37.664;2023-05-21T16:13:59;100000.44;;;19.49;52.67
61900;BME280;47853;55.890;37.664;2023-05-21T16:16:25;100001.34;;;19.82;52.19
61900;BME280;47853;55.890;37.664;2023-05-21T16:18:50;99997.81;;;19.95;51.82
61900;BME280;47853;55.890;37.664;2023-05-21T16:21:15;99993.16;;;20.09;50.89
61900;BME280;47853;55.890;37.664;2023-05-21T16:23:41;100012.19;;;20.21;51.24
61900;BME280;47853;55.890;37.664;2023-05-21T16:26:09;100006.53;;;20.29;51.72
61900;BME280;47853;55.890;37.664;2023-05-21T16:28:36;99982.88;;;19.99;52.12
61900;BME280;47853;55.890;37.664;2023-05-21T16:31:02;100000.28;;;20.35;51.32
61900;BME280;47853;55.890;37.664;2023-05-21T16:33:27;100010.75;;;19.66;53.25
61900;BME280;47853;55.890;37.664;2023-05-21T16:35:53;100001.25;;;19.56;54.20
61900;BME280;47853;55.890;37.664;2023-05-21T16:38:19;99987.97;;;19.55;54.61
61900;BME280;47853;55.890;37.664;2023-05-21T16:40:44;99996.78;;;19.82;53.29
61900;BME280;47853;55.890;37.664;2023-05-21T16:43:10;99987.47;;;19.92;53.37
61900;BME280;47853;55.890;37.664;2023-05-21T16:45:40;99987.78;;;19.50;54.35
61900;BME280;47853;55.890;37.664;2023-05-21T16:48:06;100002.59;;;19.86;53.76
61900;BME280;47853;55.890;37.664;2023-05-21T16:50:31;99992.31;;;19.63;55.22
61900;BME280;47853;55.890;37.664;2023-05-21T16:52:56;99999.34;;;19.64;55.17
61900;BME280;47853;55.890;37.664;2023-05-21T16:55:22;100000.44;;;20.08;53.19
61900;BME280;47853;55.890;37.664;2023-05-21T16:57:47;99996.41;;;20.56;52.28
61900;BME280;47853;55.890;37.664;2023-05-21T17:00:13;99998.97;;;20.45;52.04
61900;BME280;47853;55.890;37.664;2023-05-21T17:02:38;99986.59;;;20.30;51.12
61900;BME280;47853;55.890;37.664;2023-05-21T17:05:28;100004.88;;;20.60;51.67
61900;BME280;47853;55.890;37.664;2023-05-21T17:07:52;99986.22;;;21.09;49.32
61900;BME280;47853;55.890;37.664;2023-05-21T17:10:18;100007.09;;;21.21;49.17
61900;BME280;47853;55.890;37.664;2023-05-21T17:12:43;100002.97;;;20.93;50.06
61900;BME280;47853;55.890;37.664;2023-05-21T17:15:09;100000.84;;;21.01;49.80
61900;BME280;47853;55.890;37.664;2023-05-21T17:17:34;100002.47;;;21.47;48.31
61900;BME280;47853;55.890;37.664;2023-05-21T17:20:00;100007.84;;;21.28;47.89
61900;BME280;47853;55.890;37.664;2023-05-21T17:22:26;100001.53;;;21.34;48.15
61900;BME280;47853;55.890;37.664;2023-05-21T17:24:51;99995.66;;;21.81;47.14
61900;BME280;47853;55.890;37.664;2023-05-21T17:27:17;100008.63;;;21.72;47.17
61900;BME280;47853;55.890;37.664;2023-05-21T17:29:42;100003.69;;;21.51;47.91
61900;BME280;47853;55.890;37.664;2023-05-21T17:32:09;100009.13;;;22.30;45.75
61900;BME280;47853;55.890;37.664;2023-05-21T17:34:34;100011.03;;;21.43;47.72
61900;BME280;47853;55.890;37.664;2023-05-21T17:36:59;100011.03;;;21.99;46.81
61900;BME280;47853;55.890;37.664;2023-05-21T17:39:25;100010.88;;;21.57;47.50
61900;BME280;47853;55.890;37.664;2023-05-21T17:41:50;99995.03;;;21.42;48.55
61900;BME280;47853;55.890;37.664;2023-05-21T17:44:18;100013.59;;;21.57;48.51
61900;BME280;47853;55.890;37.664;2023-05-21T17:46:45;100021.34;;;21.28;49.34
61900;BME280;47853;55.890;37.664;2023-05-21T17:49:10;100000.97;;;21.51;48.71
61900;BME280;47853;55.890;37.664;2023-05-21T17:51:36;100019.56;;;21.40;49.62
61900;BME280;47853;55.890;37.664;2023-05-21T17:54:02;100027.34;;;21.11;50.27
61900;BME280;47853;55.890;37.664;2023-05-21T17:56:28;100001.06;;;21.00;51.45
61900;BME280;47853;55.890;37.664;2023-05-21T17:58:53;100003.66;;;20.56;52.18
61900;BME280;47853;55.890;37.664;2023-05-21T18:01:19;100029.44;;;20.77;53.09
61900;BME280;47853;55.890;37.664;2023-05-21T18:03:44;100021.50;;;21.14;51.44
61900;BME280;47853;55.890;37.664;2023-05-21T18:06:10;100015.88;;;20.91;52.39
61900;BME280;47853;55.890;37.664;2023-05-21T18:08:35;100030.25;;;21.10;51.63
61900;BME280;47853;55.890;37.664;2023-05-21T18:11:06;100013.94;;;21.23;50.56
61900;BME280;47853;55.890;37.664;2023-05-21T18:13:32;100023.66;;;21.68;49.20
61900;BME280;47853;55.890;37.664;2023-05-21T18:15:57;100012.91;;;21.43;49.61
61900;BME280;47853;55.890;37.664;2023-05-21T18:18:23;100013.94;;;21.23;50.36
61900;BME280;47853;55.890;37.664;2023-05-21T18:20:49;100012.38;;;21.53;49.30
61900;BME280;47853;55.890;37.664;2023-05-21T18:23:15;100012.06;;;21.42;49.38
61900;BME280;47853;55.890;37.664;2023-05-21T18:25:41;100022.34;;;21.34;50.30
61900;BME280;47853;55.890;37.664;2023-05-21T18:28:07;100033.22;;;21.27;50.17
61900;BME280;47853;55.890;37.664;2023-05-21T18:30:33;100017.47;;;20.98;51.21
61900;BME280;47853;55.890;37.664;2023-05-21T18:33:04;100006.50;;;21.37;49.72
61900;BME280;47853;55.890;37.664;2023-05-21T18:35:29;100005.09;;;21.53;50.18
61900;BME280;47853;55.890;37.664;2023-05-21T18:37:56;100008.78;;;21.59;49.75
61900;BME280;47853;55.890;37.664;2023-05-21T18:40:21;100017.25;;;21.25;50.84
61900;BME280;47853;55.890;37.664;2023-05-21T18:42:46;100011.63;;;21.46;50.07
61900;BME280;47853;55.890;37.664;2023-05-21T18:45:12;100015.75;;;21.48;50.63
61900;BME280;47853;55.890;37.664;2023-05-21T18:47:37;100009.75;;;21.65;50.56
61900;BME280;47853;55.890;37.664;2023-05-21T18:50:03;99998.72;;;21.48;50.24
61900;BME280;47853;55.890;37.664;2023-05-21T18:52:29;99990.53;;;20.92;52.41
61900;BME280;47853;55.890;37.664;2023-05-21T18:54:54;100020.59;;;21.21;52.18
61900;BME280;47853;55.890;37.664;2023-05-21T18:57:40;99980.25;;;21.26;52.13
61900;BME280;47853;55.890;37.664;2023-05-21T19:03:15;100006.44;;;21.44;51.79
61900;BME280;47853;55.890;37.664;2023-05-21T19:05:40;99986.56;;;20.69;52.54
61900;BME280;47853;55.890;37.664;2023-05-21T19:08:06;99998.63;;;20.92;52.81
61900;BME280;47853;55.890;37.664;2023-05-21T19:10:31;99985.09;;;20.66;53.42
61900;BME280;47853;55.890;37.664;2023-05-21T19:12:56;99970.69;;;20.54;54.59
61900;BME280;47853;55.890;37.664;2023-05-21T19:15:22;99965.09;;;20.55;53.92
61900;BME280;47853;55.890;37.664;2023-05-21T19:17:47;99960.03;;;20.34;54.80
61900;BME280;47853;55.890;37.664;2023-05-21T19:20:22;100002.88;;;20.49;55.71
61900;BME280;47853;55.890;37.664;2023-05-21T19:22:52;99993.88;;;20.62;54.49
61900;BME280;47853;55.890;37.664;2023-05-21T19:25:21;100010.94;;;20.23;55.68
61900;BME280;47853;55.890;37.664;2023-05-21T19:27:49;99996.22;;;20.19;56.10
61900;BME280;47853;55.890;37.664;2023-05-21T19:30:15;99999.34;;;20.48;55.06
61900;BME280;47853;55.890;37.664;2023-05-21T19:32:40;99984.66;;;20.12;55.99
61900;BME280;47853;55.890;37.664;2023-05-21T19:35:06;99967.50;;;19.99;56.93
61900;BME280;47853;55.890;37.664;2023-05-21T19:37:34;100013.47;;;20.11;57.92
61900;BME280;47853;55.890;37.664;2023-05-21T19:39:59;100016.06;;;20.64;56.83
61900;BME280;47853;55.890;37.664;2023-05-21T19:42:28;100011.63;;;20.44;58.04
61900;BME280;47853;55.890;37.664;2023-05-21T19:44:53;100025.16;;;19.98;60.01
61900;BME280;47853;55.890;37.664;2023-05-21T19:50:33;99964.25;;;19.77;59.72
61900;BME280;47853;55.890;37.664;2023-05-21T19:52:58;99996.38;;;19.92;59.57
61900;BME280;47853;55.890;37.664;2023-05-21T19:55:24;100017.34;;;20.54;57.94
61900;BME280;47853;55.890;37.664;2023-05-21T19:57:49;99955.13;;;19.92;57.99
61900;BME280;47853;55.890;37.664;2023-05-21T20:00:15;100015.19;;;20.70;56.41
61900;BME280;47853;55.890;37.664;2023-05-21T20:02:40;100021.94;;;20.86;56.05
61900;BME280;47853;55.890;37.664;2023-05-21T20:05:06;99999.34;;;20.80;55.54
61900;BME280;47853;55.890;37.664;2023-05-21T20:07:32;100019.97;;;20.36;58.53
61900;BME280;47853;55.890;37.664;2023-05-21T20:09:57;100007.97;;;20.32;59.67
61900;BME280;47853;55.890;37.664;2023-05-21T20:12:23;100017.91;;;20.31;60.43
61900;BME280;47853;55.890;37.664;2023-05-21T20:14:48;100018.78;;;20.25;60.91
61900;BME280;47853;55.890;37.664;2023-05-21T20:17:13;100002.50;;;20.45;58.79
61900;BME280;47853;55.890;37.664;2023-05-21T20:19:39;100003.16;;;20.40;58.60
61900;BME280;47853;55.890;37.664;2023-05-21T20:22:04;100019.25;;;20.54;58.09
61900;BME280;47853;55.890;37.664;2023-05-21T20:24:30;100004.03;;;20.34;58.28
61900;BME280;47853;55.890;37.664;2023-05-21T20:26:55;100015.16;;;20.06;61.22
61900;BME280;47853;55.890;37.664;2023-05-21T20:29:20;100022.38;;;19.60;62.20
61900;BME280;47853;55.890;37.664;2023-05-21T20:31:46;100015.44;;;19.84;61.69
61900;BME280;47853;55.890;37.664;2023-05-21T20:34:11;100018.97;;;19.91;61.95
61900;BME280;47853;55.890;37.664;2023-05-21T20:36:37;100016.47;;;19.90;61.26
61900;BME280;47853;55.890;37.664;2023-05-21T20:39:02;100008.53;;;20.02;60.49
61900;BME280;47853;55.890;37.664;2023-05-21T20:41:28;100014.31;;;20.12;59.63
61900;BME280;47853;55.890;37.664;2023-05-21T20:43:53;100024.25;;;20.18;59.56
61900;BME280;47853;55.890;37.664;2023-05-21T20:46:19;100020.50;;;20.19;58.69
61900;BME280;47853;55.890;37.664;2023-05-21T20:48:44;100007.78;;;20.33;58.49
61900;BME280;47853;55.890;37.664;2023-05-21T20:51:09;100027.38;;;20.47;57.50
61900;BME280;47853;55.890;37.664;2023-05-21T20:53:35;100012.13;;;20.34;58.26
61900;BME280;47853;55.890;37.664;2023-05-21T20:56:00;100029.75;;;20.30;59.11
61900;BME280;47853;55.890;37.664;2023-05-21T20:58:25;100034.47;;;20.41;58.35
61900;BME280;47853;55.890;37.664;2023-05-21T21:00:54;100020.66;;;19.65;60.44
61900;BME280;47853;55.890;37.664;2023-05-21T21:03:20;100042.50;;;19.50;62.24
61900;BME280;47853;55.890;37.664;2023-05-21T21:05:46;100029.91;;;19.24;65.08
61900;BME280;47853;55.890;37.664;2023-05-21T21:08:11;100027.84;;;19.26;63.77
61900;BME280;47853;55.890;37.664;2023-05-21T21:10:42;100025.75;;;19.21;65.53
61900;BME280;47853;55.890;37.664;2023-05-21T21:13:08;99979.38;;;19.19;64.26
61900;BME280;47853;55.890;37.664;2023-05-21T21:15:36;99986.34;;;19.47;62.62
61900;BME280;47853;55.890;37.664;2023-05-21T21:18:02;99983.28;;;19.89;60.59
61900;BME280;47853;55.890;37.664;2023-05-21T21:20:27;100030.06;;;20.47;58.39
61900;BME280;47853;55.890;37.664;2023-05-21T21:22:53;100034.34;;;20.62;57.70
61900;BME280;47853;55.890;37.664;2023-05-21T21:25:18;100029.84;;;20.55;56.42
61900;BME280;47853;55.890;37.664;2023-05-21T21:27:46;100022.91;;;20.34;55.45
61900;BME280;47853;55.890;37.664;2023-05-21T21:30:12;100040.66;;;20.49;56.09
61900;BME280;47853;55.890;37.664;2023-05-21T21:32:37;100045.53;;;20.33;57.86
61900;BME280;47853;55.890;37.664;2023-05-21T21:35:03;100035.47;;;20.15;55.19
61900;BME280;47853;55.890;37.664;2023-05-21T21:37:28;100028.44;;;18.88;60.95
61900;BME280;47853;55.890;37.664;2023-05-21T21:39:54;100033.53;;;18.35;64.43
61900;BME280;47853;55.890;37.664;2023-05-21T21:42:19;100022.41;;;18.59;63.04
61900;BME280;47853;55.890;37.664;2023-05-21T21:44:47;100020.09;;;18.35;64.65
61900;BME280;47853;55.890;37.664;2023-05-21T21:47:19;100031.44;;;17.75;67.95
61900;BME280;47853;55.890;37.664;2023-05-21T21:49:44;100020.00;;;18.02;67.59
61900;BME280;47853;55.890;37.664;2023-05-21T21:52:09;100027.50;;;18.20;67.79
61900;BME280;47853;55.890;37.664;2023-05-21T21:54:35;100016.22;;;17.96;69.10
61900;BME280;47853;55.890;37.664;2023-05-21T21:57:00;99998.09;;;18.11;69.71
61900;BME280;47853;55.890;37.664;2023-05-21T21:59:26;100013.34;;;18.87;67.49
61900;BME280;47853;55.890;37.664;2023-05-21T22:01:51;100023.50;;;18.98;63.10
61900;BME280;47853;55.890;37.664;2023-05-21T22:04:16;100020.78;;;19.11;61.87
61900;BME280;47853;55.890;37.664;2023-05-21T22:06:42;100005.69;;;19.04;62.30
61900;BME280;47853;55.890;37.664;2023-05-21T22:09:11;100000.09;;;18.98;61.64
61900;BME280;47853;55.890;37.664;2023-05-21T22:11:36;99992.41;;;18.75;61.87
61900;BME280;47853;55.890;37.664;2023-05-21T22:14:02;100006.31;;;18.99;61.97
61900;BME280;47853;55.890;37.664;2023-05-21T22:16:27;100004.44;;;19.13;61.48
61900;BME280;47853;55.890;37.664;2023-05-21T22:18:56;99993.59;;;19.47;59.00
61900;BME280;47853;55.890;37.664;2023-05-21T22:21:21;99998.25;;;19.92;57.06
61900;BME280;47853;55.890;37.664;2023-05-21T22:23:46;99993.97;;;19.64;57.37
61900;BME280;47853;55.890;37.664;2023-05-21T22:26:12;100007.53;;;19.89;56.62
61900;BME280;47853;55.890;37.664;2023-05-21T22:28:37;100005.66;;;19.96;55.75
61900;BME280;47853;55.890;37.664;2023-05-21T22:31:03;100000.19;;;20.17;55.88
61900;BME280;47853;55.890;37.664;2023-05-21T22:33:28;100008.94;;;20.44;54.15
61900;BME280;47853;55.890;37.664;2023-05-21T22:35:54;99997.47;;;20.17;55.08
61900;BME280;47853;55.890;37.664;2023-05-21T22:38:19;100005.19;;;20.45;54.20
61900;BME280;47853;55.890;37.664;2023-05-21T22:40:47;100008.63;;;20.59;54.89
61900;BME280;47853;55.890;37.664;2023-05-21T22:43:13;100000.50;;;20.66;55.36
61900;BME280;47853;55.890;37.664;2023-05-21T22:45:38;99997.25;;;20.82;55.17
61900;BME280;47853;55.890;37.664;2023-05-21T22:48:04;99994.19;;;20.47;57.62
61900;BME280;47853;55.890;37.664;2023-05-21T22:50:29;100003.06;;;20.54;58.49
61900;BME280;47853;55.890;37.664;2023-05-21T22:52:54;99986.97;;;20.40;58.23
61900;BME280;47853;55.890;37.664;2023-05-21T22:55:20;99991.00;;;20.24;57.06
61900;BME280;47853;55.890;37.664;2023-05-21T22:57:45;99992.44;;;20.27;55.60
61900;BME280;47853;55.890;37.664;2023-05-21T23:03:30;99933.81;;;19.24;62.58
61900;BME280;47853;55.890;37.664;2023-05-21T23:05:55;99976.16;;;19.63;61.13
61900;BME280;47853;55.890;37.664;2023-05-21T23:08:20;99950.00;;;18.57;63.82
61900;BME280;47853;55.890;37.664;2023-05-21T23:10:46;100004.56;;;18.31;70.78
61900;BME280;47853;55.890;37.664;2023-05-21T23:13:11;99981.41;;;18.36;71.60
61900;BME280;47853;55.890;37.664;2023-05-21T23:15:37;99997.22;;;19.07;69.14
61900;BME280;47853;55.890;37.664;2023-05-21T23:18:02;100001.75;;;19.13;67.37
61900;BME280;47853;55.890;37.664;2023-05-21T23:20:27;99974.84;;;18.79;67.00
61900;BME280;47853;55.890;37.664;2023-05-21T23:22:53;99991.88;;;18.04;70.68
61900;BME280;47853;55.890;37.664;2023-05-21T23:25:18;100001.34;;;18.00;75.04
61900;BME280;47853;55.890;37.664;2023-05-21T23:27:43;99995.91;;;18.35;74.09
61900;BME280;47853;55.890;37.664;2023-05-21T23:30:09;99997.59;;;18.90;71.56
61900;BME280;47853;55.890;37.664;2023-05-21T23:32:34;100000.50;;;18.89;69.48
61900;BME280;47853;55.890;37.664;2023-05-21T23:35:00;99998.81;;;18.74;70.09
61900;BME280;47853;55.890;37.664;2023-05-21T23:37:25;99994.09;;;19.03;68.47
61900;BME280;47853;55.890;37.664;2023-05-21T23:39:50;100006.25;;;19.46;65.26
61900;BME280;47853;55.890;37.664;2023-05-21T23:42:16;99985.19;;;19.23;65.34
61900;BME280;47853;55.890;37.664;2023-05-21T23:44:42;99965.72;;;18.94;67.39
61900;BME280;47853;55.890;37.664;2023-05-21T23:47:08;99970.28;;;18.87;67.90
61900;BME280;47853;55.890;37.664;2023-05-21T23:49:33;99983.72;;;18.73;68.32
61900;BME280;47853;55.890;37.664;2023-05-21T23:51:58;99986.00;;;18.63;66.40
61900;BME280;47853;55.890;37.664;2023-05-21T23:54:39;99979.22;;;19.01;65.44
61900;BME280;47853;55.890;37.664;2023-05-21T23:57:04;99985.59;;;18.86;66.89
61900;BME280;47853;55.890;37.664;2023-05-21T23:59:30;100003.19;;;19.22;65.08
